createdAt,value
2019-04-11T00:02:54.000Z,20.23
2019-04-11T00:12:55.000Z,20.16
2019-04-11T00:22:54.000Z,20.1
2019-04-11T00:32:54.000Z,20.09
2019-04-11T00:42:54.000Z,20.06
2019-04-11T00:52:55.000Z,19.98
2019-04-11T01:02:56.000Z,19.97
2019-04-11T01:12:57.000Z,19.93
2019-04-11T01:22:54.000Z,19.9
2019-04-11T01:32:54.000Z,19.86
2019-04-11T01:42:55.000Z,19.83
2019-04-11T01:52:54.000Z,19.8
2019-04-11T02:02:54.000Z,19.77
2019-04-11T02:12:54.000Z,19.74
2019-04-11T02:22:54.000Z,19.72
2019-04-11T02:32:54.000Z,19.67
2019-04-11T02:42:54.000Z,19.65
2019-04-11T02:52:54.000Z,19.61
2019-04-11T03:02:54.000Z,19.58
2019-04-11T03:12:54.000Z,19.56
2019-04-11T03:22:54.000Z,19.53
2019-04-11T03:42:54.000Z,19.45
2019-04-11T03:52:54.000Z,19.41
2019-04-11T04:02:58.000Z,19.39
2019-04-11T04:12:55.000Z,19.37
2019-04-11T04:22:55.000Z,19.33
2019-04-11T04:32:55.000Z,19.26
2019-04-11T04:42:55.000Z,19.26
2019-04-11T04:52:55.000Z,19.24
2019-04-11T05:02:55.000Z,19.2
2019-04-11T05:12:55.000Z,19.18
2019-04-11T05:22:55.000Z,19.16
2019-04-11T05:32:55.000Z,19.13
2019-04-11T05:42:55.000Z,19.12
2019-04-11T05:52:55.000Z,19.13
2019-04-11T06:02:55.000Z,19.13
2019-04-11T06:12:55.000Z,19.12
2019-04-11T06:22:55.000Z,19.19
2019-04-11T06:32:55.000Z,19.25
2019-04-11T06:42:55.000Z,19.34
2019-04-11T06:52:55.000Z,19.34
2019-04-11T07:02:56.000Z,19.42
2019-04-11T07:12:55.000Z,19.41
2019-04-11T07:22:55.000Z,19.45
2019-04-11T07:32:55.000Z,19.49
2019-04-11T07:42:55.000Z,19.49
2019-04-11T07:52:55.000Z,19.58
2019-04-11T08:02:55.000Z,19.65
2019-04-11T08:12:55.000Z,19.75
2019-04-11T08:22:55.000Z,19.84
2019-04-11T08:32:55.000Z,19.95
2019-04-11T08:42:55.000Z,20.06
2019-04-11T08:52:55.000Z,20.08
2019-04-11T09:02:55.000Z,20.11
2019-04-11T09:12:55.000Z,20.15
2019-04-11T09:22:55.000Z,20.23
2019-04-11T09:32:57.000Z,20.35
2019-04-11T09:42:55.000Z,20.38
2019-04-11T09:52:55.000Z,20.64
2019-04-11T10:02:56.000Z,20.62
2019-04-11T10:12:55.000Z,20.79
2019-04-11T10:22:55.000Z,20.85
2019-04-11T10:32:55.000Z,20.94
2019-04-11T10:42:55.000Z,20.88
2019-04-11T10:52:55.000Z,20.96
2019-04-11T11:02:55.000Z,21.02
2019-04-11T11:12:56.000Z,21.14
2019-04-11T11:22:55.000Z,21.12
2019-04-11T11:32:55.000Z,21.07
2019-04-11T11:42:56.000Z,20.9
2019-04-11T11:52:55.000Z,21
2019-04-11T12:02:55.000Z,20.95
2019-04-11T12:12:55.000Z,21.03
2019-04-11T12:22:55.000Z,20.97
2019-04-11T12:32:56.000Z,21.04
2019-04-11T12:42:57.000Z,21.09
2019-04-11T12:52:57.000Z,21.08
2019-04-11T13:02:58.000Z,20.87
2019-04-11T13:12:56.000Z,20.87
2019-04-11T13:22:56.000Z,21
2019-04-11T13:32:56.000Z,21.02
2019-04-11T13:42:56.000Z,21.01
2019-04-11T13:52:56.000Z,20.97
2019-04-11T14:02:56.000Z,20.94
2019-04-11T14:12:56.000Z,20.96
2019-04-11T14:22:57.000Z,20.95
2019-04-11T14:32:56.000Z,20.95
2019-04-11T14:42:56.000Z,20.89
2019-04-11T15:02:56.000Z,20.95
2019-04-11T15:12:56.000Z,20.94
2019-04-11T15:22:56.000Z,20.93
2019-04-11T15:32:58.000Z,20.92
2019-04-11T15:42:56.000Z,20.91
2019-04-11T15:52:56.000Z,20.89
2019-04-11T16:02:56.000Z,20.87
2019-04-11T16:12:56.000Z,20.8
2019-04-11T16:22:59.000Z,20.81
2019-04-11T16:32:56.000Z,20.8
2019-04-11T16:42:56.000Z,20.8
2019-04-11T16:52:56.000Z,20.79
2019-04-11T17:12:57.000Z,20.76
2019-04-11T17:22:56.000Z,20.72
2019-04-11T17:32:56.000Z,20.7
2019-04-11T17:42:56.000Z,20.57
2019-04-11T17:52:56.000Z,20.66
2019-04-11T18:02:56.000Z,20.64
2019-04-11T18:12:56.000Z,20.65
2019-04-11T18:23:00.000Z,20.57
2019-04-11T18:32:56.000Z,20.61
2019-04-11T18:42:56.000Z,20.59
2019-04-11T18:52:56.000Z,20.57
2019-04-11T19:02:58.000Z,20.56
2019-04-11T19:12:57.000Z,20.53
2019-04-11T19:22:56.000Z,20.54
2019-04-11T19:32:56.000Z,20.52
2019-04-11T19:42:58.000Z,20.51
2019-04-11T19:52:57.000Z,20.47
2019-04-11T20:02:56.000Z,20.44
2019-04-11T20:12:56.000Z,20.45
2019-04-11T20:22:56.000Z,20.38
2019-04-11T20:32:56.000Z,20.36
2019-04-11T20:42:57.000Z,20.32
2019-04-11T20:52:57.000Z,20.3
2019-04-11T21:02:57.000Z,20.33
2019-04-11T21:12:58.000Z,20.29
2019-04-11T21:22:57.000Z,20.25
2019-04-11T21:32:57.000Z,20.27
2019-04-11T21:42:57.000Z,20.17
2019-04-11T21:52:57.000Z,20.11
2019-04-11T22:02:57.000Z,20.09
2019-04-11T22:12:57.000Z,20.02
2019-04-11T22:22:58.000Z,20.01
2019-04-11T22:32:57.000Z,19.98
2019-04-11T22:42:57.000Z,19.94
2019-04-11T22:52:57.000Z,19.91
2019-04-11T23:02:57.000Z,19.88
2019-04-11T23:12:57.000Z,19.84
2019-04-11T23:22:58.000Z,19.81
2019-04-11T23:32:57.000Z,19.78
2019-04-11T23:42:57.000Z,19.75
2019-04-11T23:52:57.000Z,19.7
